createdAt,value
2023-02-03T00:00:31.814Z,18.80
2023-02-03T00:02:58.657Z,18.80
2023-02-03T00:05:25.821Z,18.80
2023-02-03T00:07:52.884Z,18.80
2023-02-03T00:10:21.441Z,18.80
2023-02-03T00:12:50.549Z,18.80
2023-02-03T00:15:17.361Z,18.80
2023-02-03T00:17:44.055Z,18.80
2023-02-03T00:20:11.436Z,18.80
2023-02-03T00:22:38.049Z,18.80
2023-02-03T00:25:05.142Z,18.80
2023-02-03T00:27:32.120Z,18.70
2023-02-03T00:29:58.769Z,18.70
2023-02-03T00:32:25.570Z,18.70
2023-02-03T00:34:52.419Z,18.70
2023-02-03T00:37:19.082Z,18.70
2023-02-03T00:39:45.729Z,18.70
2023-02-03T00:42:12.373Z,18.70
2023-02-03T00:44:39.070Z,18.70
2023-02-03T00:47:05.790Z,18.70
2023-02-03T00:49:32.407Z,18.70
2023-02-03T00:51:59.079Z,18.70
2023-02-03T00:54:25.765Z,18.70
2023-02-03T00:56:52.479Z,18.70
2023-02-03T00:59:19.172Z,18.70
2023-02-03T01:01:45.826Z,18.70
2023-02-03T01:04:12.753Z,18.70
2023-02-03T01:06:40.440Z,18.70
2023-02-03T01:09:07.075Z,18.70
2023-02-03T01:11:34.042Z,18.70
2023-02-03T01:14:01.721Z,18.70
2023-02-03T01:16:31.151Z,18.70
2023-02-03T01:18:57.951Z,18.70
2023-02-03T01:21:26.125Z,18.70
2023-02-03T01:23:53.773Z,18.70
2023-02-03T01:26:22.914Z,18.70
2023-02-03T01:29:02.293Z,18.70
2023-02-03T01:31:39.577Z,18.60
2023-02-03T01:34:10.507Z,18.70
2023-02-03T01:36:37.426Z,18.60
2023-02-03T01:39:05.537Z,18.60
2023-02-03T01:41:37.705Z,18.60
2023-02-03T01:44:43.115Z,18.60
2023-02-03T01:47:24.210Z,18.60
2023-02-03T01:50:20.036Z,18.60
2023-02-03T01:52:51.305Z,18.60
2023-02-03T01:55:23.275Z,18.60
2023-02-03T01:57:58.533Z,18.60
2023-02-03T02:00:26.024Z,18.60
2023-02-03T02:02:54.253Z,18.60
2023-02-03T02:05:36.957Z,18.60
2023-02-03T02:08:04.451Z,18.60
2023-02-03T02:10:32.341Z,18.60
2023-02-03T02:13:01.297Z,18.60
2023-02-03T02:15:54.969Z,18.60
2023-02-03T02:18:24.688Z,18.60
2023-02-03T02:21:00.584Z,18.60
2023-02-03T02:23:44.657Z,18.60
2023-02-03T02:26:37.215Z,18.60
2023-02-03T02:29:15.531Z,18.60
2023-02-03T02:31:42.259Z,18.50
2023-02-03T02:34:33.814Z,18.50
2023-02-03T02:37:07.997Z,18.50
2023-02-03T02:39:47.813Z,18.50
2023-02-03T02:42:44.504Z,18.50
2023-02-03T02:45:18.009Z,18.50
2023-02-03T02:47:45.567Z,18.50
2023-02-03T02:50:20.621Z,18.50
2023-02-03T02:52:49.203Z,18.50
2023-02-03T02:55:24.653Z,18.50
2023-02-03T02:57:55.570Z,18.50
2023-02-03T03:00:23.150Z,18.50
2023-02-03T03:02:50.116Z,18.50
2023-02-03T03:05:18.699Z,18.50
2023-02-03T03:07:51.326Z,18.50
2023-02-03T03:10:24.551Z,18.50
2023-02-03T03:12:56.901Z,18.50
2023-02-03T03:15:27.606Z,18.50
2023-02-03T03:17:57.052Z,18.50
2023-02-03T03:20:27.377Z,18.50
2023-02-03T03:23:05.613Z,18.50
2023-02-03T03:25:39.304Z,18.50
2023-02-03T03:28:12.141Z,18.50
2023-02-03T03:30:39.913Z,18.50
2023-02-03T03:33:08.366Z,18.50
2023-02-03T03:35:43.105Z,18.50
2023-02-03T03:38:23.403Z,18.50
2023-02-03T03:41:16.851Z,18.50
2023-02-03T03:43:47.251Z,18.50
2023-02-03T03:46:25.668Z,18.50
2023-02-03T03:49:05.977Z,18.50
2023-02-03T03:51:46.270Z,18.50
2023-02-03T03:54:16.912Z,18.50
2023-02-03T03:56:58.075Z,18.50
2023-02-03T03:59:27.811Z,18.50
2023-02-03T04:01:54.865Z,18.50
2023-02-03T04:04:24.246Z,18.50
2023-02-03T04:06:54.847Z,18.50
2023-02-03T04:09:21.499Z,18.50
2023-02-03T04:12:03.407Z,18.50
2023-02-03T04:14:31.361Z,18.50
2023-02-03T04:16:59.069Z,18.50
2023-02-03T04:19:26.330Z,18.50
2023-02-03T04:21:52.969Z,18.50
2023-02-03T04:24:19.675Z,18.40
2023-02-03T04:26:46.339Z,18.50
2023-02-03T04:29:13.027Z,18.40
2023-02-03T04:31:39.821Z,18.50
2023-02-03T04:34:06.835Z,18.40
2023-02-03T04:36:33.576Z,18.40
2023-02-03T04:39:00.314Z,18.40
2023-02-03T04:41:27.021Z,18.40
2023-02-03T04:43:53.651Z,18.40
2023-02-03T04:46:20.379Z,18.50
2023-02-03T04:48:47.117Z,18.40
2023-02-03T04:51:13.777Z,18.40
2023-02-03T04:53:40.461Z,18.40
2023-02-03T04:56:07.497Z,18.40
2023-02-03T04:58:34.112Z,18.40
2023-02-03T05:01:08.007Z,18.40
2023-02-03T05:03:35.438Z,18.40
2023-02-03T05:06:03.318Z,18.40
2023-02-03T05:08:30.865Z,18.40
2023-02-03T05:10:58.403Z,18.40
2023-02-03T05:13:25.821Z,18.40
2023-02-03T05:15:52.524Z,18.40
2023-02-03T05:18:19.185Z,18.40
2023-02-03T05:20:45.851Z,18.40
2023-02-03T05:23:12.489Z,18.40
2023-02-03T05:25:39.111Z,18.40
2023-02-03T05:28:05.944Z,18.40
2023-02-03T05:30:32.679Z,18.40
2023-02-03T05:32:59.304Z,18.40
2023-02-03T05:35:25.969Z,18.40
2023-02-03T05:37:52.627Z,18.40
2023-02-03T05:40:37.865Z,18.40
2023-02-03T05:43:04.609Z,18.40
2023-02-03T05:45:31.878Z,18.40
2023-02-03T05:47:58.526Z,18.40
2023-02-03T05:50:27.125Z,18.40
2023-02-03T05:52:53.953Z,18.40
2023-02-03T05:55:20.575Z,18.40
2023-02-03T05:57:47.233Z,18.40
2023-02-03T06:00:14.905Z,18.40
2023-02-03T06:02:41.578Z,18.40
2023-02-03T06:05:08.698Z,18.40
2023-02-03T06:07:35.802Z,18.40
2023-02-03T06:10:02.864Z,18.40
2023-02-03T06:12:29.524Z,18.40
2023-02-03T06:14:56.349Z,18.40
2023-02-03T06:17:23.019Z,18.40
2023-02-03T06:19:49.706Z,18.40
2023-02-03T06:22:16.385Z,18.40
2023-02-03T06:24:44.774Z,18.50
2023-02-03T06:27:11.784Z,18.50
2023-02-03T06:29:38.423Z,18.40
2023-02-03T06:32:05.201Z,18.50
2023-02-03T06:34:33.067Z,18.40
2023-02-03T06:36:59.810Z,18.50
2023-02-03T06:39:26.883Z,18.50
2023-02-03T06:41:53.609Z,18.50
2023-02-03T06:44:20.270Z,18.40
2023-02-03T06:46:46.906Z,18.50
2023-02-03T06:49:13.788Z,18.50
2023-02-03T06:51:40.394Z,18.50
2023-02-03T06:54:07.735Z,18.50
2023-02-03T06:56:34.400Z,18.50
2023-02-03T06:59:01.065Z,18.50
2023-02-03T07:01:27.869Z,18.50
2023-02-03T07:03:57.804Z,18.50
2023-02-03T07:06:29.107Z,18.50
2023-02-03T07:08:56.898Z,18.50
2023-02-03T07:11:24.277Z,18.50
2023-02-03T07:13:51.614Z,18.50
2023-02-03T07:16:18.628Z,18.50
2023-02-03T07:18:47.963Z,18.50
2023-02-03T07:21:16.255Z,18.50
2023-02-03T07:23:43.512Z,18.50
2023-02-03T07:26:11.183Z,18.50
2023-02-03T07:28:37.944Z,18.50
2023-02-03T07:31:04.953Z,18.50
2023-02-03T07:33:32.293Z,18.50
2023-02-03T07:36:00.206Z,18.50
2023-02-03T07:38:28.045Z,18.50
2023-02-03T07:40:55.257Z,18.50
2023-02-03T07:43:22.327Z,18.50
2023-02-03T07:45:48.982Z,18.50
2023-02-03T07:48:15.721Z,18.50
2023-02-03T07:50:42.357Z,18.50
2023-02-03T07:53:09.347Z,18.50
2023-02-03T07:55:39.697Z,18.50
2023-02-03T07:58:06.970Z,18.50
2023-02-03T08:00:33.864Z,18.50
2023-02-03T08:03:00.960Z,18.50
2023-02-03T08:05:27.966Z,18.50
2023-02-03T08:07:54.609Z,18.50
2023-02-03T08:10:21.264Z,18.50
2023-02-03T08:12:48.115Z,18.50
2023-02-03T08:15:15.161Z,18.50
2023-02-03T08:17:42.022Z,18.50
2023-02-03T08:20:09.439Z,18.50
2023-02-03T08:22:36.150Z,18.60
2023-02-03T08:25:03.860Z,18.50
2023-02-03T08:27:32.712Z,18.50
2023-02-03T08:29:59.735Z,18.60
2023-02-03T08:32:27.018Z,18.50
2023-02-03T08:34:53.931Z,18.60
2023-02-03T08:37:24.346Z,18.60
2023-02-03T08:39:52.378Z,18.60
2023-02-03T08:42:19.101Z,18.60
2023-02-03T08:44:45.922Z,18.60
2023-02-03T08:47:12.918Z,18.60
2023-02-03T08:49:39.756Z,18.60
2023-02-03T08:52:10.798Z,18.60
2023-02-03T08:54:37.840Z,18.60
2023-02-03T08:57:04.650Z,18.60
2023-02-03T08:59:31.473Z,18.60
2023-02-03T09:01:59.824Z,18.70
2023-02-03T09:04:26.901Z,18.70
2023-02-03T09:06:54.529Z,18.70
2023-02-03T09:09:22.146Z,18.70
2023-02-03T09:11:49.030Z,18.70
2023-02-03T09:14:15.710Z,18.70
2023-02-03T09:16:42.579Z,18.70
2023-02-03T09:19:09.535Z,18.70
2023-02-03T09:21:42.023Z,18.70
2023-02-03T09:24:16.001Z,18.70
2023-02-03T09:26:42.713Z,18.80
2023-02-03T09:29:09.754Z,18.80
2023-02-03T09:31:36.909Z,18.80
2023-02-03T09:34:03.688Z,18.80
2023-02-03T09:36:30.360Z,18.90
2023-02-03T09:38:58.023Z,18.90
2023-02-03T09:41:36.771Z,18.90
2023-02-03T09:44:22.579Z,18.90
2023-02-03T09:46:54.516Z,18.90
2023-02-03T09:49:33.841Z,18.80
2023-02-03T09:52:11.595Z,18.80
2023-02-03T09:54:52.406Z,18.80
2023-02-03T09:57:24.620Z,18.80
2023-02-03T09:59:52.983Z,18.90
2023-02-03T10:02:25.628Z,18.90
2023-02-03T10:05:06.285Z,18.90
2023-02-03T10:07:47.059Z,18.90
2023-02-03T10:10:31.493Z,18.90
2023-02-03T10:13:06.133Z,18.90
2023-02-03T10:15:38.569Z,18.90
2023-02-03T10:18:09.635Z,18.90
2023-02-03T10:20:44.547Z,18.90
2023-02-03T10:23:18.584Z,18.90
2023-02-03T10:25:57.124Z,18.90
2023-02-03T10:28:30.570Z,18.90
2023-02-03T10:31:00.430Z,18.90
2023-02-03T10:33:29.738Z,18.90
2023-02-03T10:36:06.581Z,19.00
2023-02-03T10:38:55.964Z,19.00
2023-02-03T10:41:23.291Z,19.00
2023-02-03T10:43:51.915Z,19.00
2023-02-03T10:46:28.632Z,19.00
2023-02-03T10:48:55.843Z,19.10
2023-02-03T10:51:30.612Z,19.10
2023-02-03T10:53:58.083Z,19.10
2023-02-03T10:56:38.606Z,19.10
2023-02-03T10:59:07.279Z,19.10
2023-02-03T11:01:46.753Z,19.10
2023-02-03T11:04:29.770Z,19.20
2023-02-03T11:07:02.261Z,19.20
2023-02-03T11:09:33.391Z,19.30
2023-02-03T11:12:23.439Z,19.20
2023-02-03T11:14:53.921Z,19.30
2023-02-03T11:17:23.553Z,19.30
2023-02-03T11:19:52.644Z,19.20
2023-02-03T11:22:34.024Z,19.20
2023-02-03T11:25:03.941Z,19.20
2023-02-03T11:27:32.733Z,19.20
2023-02-03T11:30:18.407Z,19.20
2023-02-03T11:32:47.820Z,19.20
2023-02-03T11:35:29.466Z,19.20
2023-02-03T11:37:57.136Z,19.30
2023-02-03T11:40:30.356Z,19.20
2023-02-03T11:42:57.089Z,19.20
2023-02-03T11:45:32.981Z,19.20
2023-02-03T11:48:29.713Z,19.20
2023-02-03T11:51:15.587Z,19.20
2023-02-03T11:54:00.768Z,19.20
2023-02-03T11:56:49.476Z,19.30
2023-02-03T11:59:23.445Z,19.30
2023-02-03T12:02:13.240Z,19.30
2023-02-03T12:05:05.910Z,19.30
2023-02-03T12:08:03.945Z,19.30
2023-02-03T12:10:37.009Z,19.40
2023-02-03T12:13:16.395Z,19.30
2023-02-03T12:16:20.578Z,19.30
2023-02-03T12:19:09.249Z,19.40
2023-02-03T12:21:44.728Z,19.40
2023-02-03T12:24:45.727Z,19.40
2023-02-03T12:27:42.762Z,19.40
2023-02-03T12:30:14.978Z,19.30
2023-02-03T12:32:55.171Z,19.30
2023-02-03T12:35:40.902Z,19.30
2023-02-03T12:38:15.309Z,19.30
2023-02-03T12:40:56.707Z,19.30
2023-02-03T12:43:38.479Z,19.30
2023-02-03T12:46:14.688Z,19.30
2023-02-03T12:49:02.820Z,19.30
2023-02-03T12:51:39.348Z,19.30
2023-02-03T12:54:31.042Z,19.30
2023-02-03T12:57:14.122Z,19.30
2023-02-03T12:59:43.549Z,19.30
2023-02-03T13:02:22.051Z,19.30
2023-02-03T13:04:57.823Z,19.30
2023-02-03T13:07:35.776Z,19.30
2023-02-03T13:10:33.423Z,19.30
2023-02-03T13:13:02.571Z,19.30
2023-02-03T13:15:33.018Z,19.30
2023-02-03T13:18:17.551Z,19.40
2023-02-03T13:20:45.817Z,19.40
2023-02-03T13:23:15.832Z,19.50
2023-02-03T13:26:06.039Z,19.50
2023-02-03T13:28:57.529Z,19.50
2023-02-03T13:31:33.505Z,19.50
2023-02-03T13:34:03.072Z,19.50
2023-02-03T13:36:48.458Z,19.50
2023-02-03T13:39:36.503Z,19.50
2023-02-03T13:42:23.214Z,19.50
2023-02-03T13:45:02.339Z,19.50
2023-02-03T13:47:30.995Z,19.50
2023-02-03T13:50:06.132Z,19.50
2023-02-03T13:52:36.712Z,19.50
2023-02-03T13:55:04.774Z,19.50
2023-02-03T13:57:36.914Z,19.50
2023-02-03T14:00:43.967Z,19.50
2023-02-03T14:03:43.513Z,19.50
2023-02-03T14:06:36.298Z,19.50
2023-02-03T14:09:19.848Z,19.50
2023-02-03T14:11:49.232Z,19.50
2023-02-03T14:14:15.886Z,19.50
2023-02-03T14:16:54.646Z,19.50
2023-02-03T14:19:21.610Z,19.50
2023-02-03T14:22:09.744Z,19.50
2023-02-03T14:24:40.451Z,19.50
2023-02-03T14:27:22.905Z,19.50
2023-02-03T14:30:11.555Z,19.50
2023-02-03T14:32:55.197Z,19.50
2023-02-03T14:35:25.572Z,19.50
2023-02-03T14:38:01.884Z,19.50
2023-02-03T14:40:39.904Z,19.50
2023-02-03T14:43:18.469Z,19.50
2023-02-03T14:46:16.528Z,19.50
2023-02-03T14:49:04.029Z,19.50
2023-02-03T14:51:54.523Z,19.50
2023-02-03T14:54:46.433Z,19.50
2023-02-03T14:57:52.962Z,19.50
2023-02-03T15:00:19.658Z,19.50
2023-02-03T15:03:11.455Z,19.50
2023-02-03T15:05:38.233Z,19.50
2023-02-03T15:08:05.394Z,19.50
2023-02-03T15:10:45.045Z,19.50
2023-02-03T15:13:34.560Z,19.40
2023-02-03T15:16:04.312Z,19.40
2023-02-03T15:18:37.541Z,19.40
2023-02-03T15:21:05.176Z,19.40
2023-02-03T15:23:42.937Z,19.40
2023-02-03T15:26:13.992Z,19.40
2023-02-03T15:28:40.748Z,19.40
2023-02-03T15:31:20.386Z,19.40
2023-02-03T15:33:49.964Z,19.40
2023-02-03T15:36:25.335Z,19.40
2023-02-03T15:38:58.584Z,19.40
2023-02-03T15:41:26.549Z,19.40
2023-02-03T15:44:03.878Z,19.40
2023-02-03T15:46:44.087Z,19.40
2023-02-03T15:49:25.282Z,19.40
2023-02-03T15:52:07.489Z,19.40
2023-02-03T15:54:41.457Z,19.40
2023-02-03T15:57:19.254Z,19.40
2023-02-03T15:59:52.605Z,19.40
2023-02-03T16:02:33.776Z,19.40
2023-02-03T16:05:17.426Z,19.40
2023-02-03T16:07:44.179Z,19.40
2023-02-03T16:10:43.264Z,19.40
2023-02-03T16:13:27.000Z,19.40
2023-02-03T16:16:05.836Z,19.40
2023-02-03T16:18:36.636Z,19.40
2023-02-03T16:21:05.367Z,19.30
2023-02-03T16:23:32.969Z,19.40
2023-02-03T16:26:15.443Z,19.40
2023-02-03T16:29:01.571Z,19.40
2023-02-03T16:31:46.697Z,19.30
2023-02-03T16:34:35.293Z,19.40
2023-02-03T16:37:21.269Z,19.30
2023-02-03T16:40:06.697Z,19.30
2023-02-03T16:42:59.369Z,19.30
2023-02-03T16:45:45.033Z,19.30
2023-02-03T16:48:30.940Z,19.30
2023-02-03T16:51:03.661Z,19.30
2023-02-03T16:53:32.252Z,19.30
2023-02-03T16:56:01.795Z,19.30
2023-02-03T16:58:28.677Z,19.30
2023-02-03T17:00:57.446Z,19.30
2023-02-03T17:03:27.345Z,19.30
2023-02-03T17:05:55.567Z,19.30
2023-02-03T17:08:24.514Z,19.30
2023-02-03T17:10:51.345Z,19.30
2023-02-03T17:13:20.146Z,19.30
2023-02-03T17:15:49.999Z,19.30
2023-02-03T17:18:17.104Z,19.30
2023-02-03T17:20:45.696Z,19.30
2023-02-03T17:23:13.534Z,19.30
2023-02-03T17:25:40.746Z,19.30
2023-02-03T17:28:08.867Z,19.30
2023-02-03T17:30:36.148Z,19.30
2023-02-03T17:33:11.845Z,19.30
2023-02-03T17:35:43.185Z,19.30
2023-02-03T17:38:11.645Z,19.30
2023-02-03T17:54:29.869Z,19.30
2023-02-03T17:56:56.508Z,19.30
2023-02-03T17:59:23.317Z,19.30
2023-02-03T18:01:50.288Z,19.30
2023-02-03T18:04:16.929Z,19.30
2023-02-03T18:06:44.026Z,19.30
2023-02-03T18:09:13.945Z,19.30
2023-02-03T18:11:40.756Z,19.30
2023-02-03T18:14:07.350Z,19.30
2023-02-03T18:16:35.883Z,19.30
2023-02-03T18:19:06.126Z,19.30
2023-02-03T18:21:33.135Z,19.20
2023-02-03T18:24:01.932Z,19.20
2023-02-03T18:26:34.296Z,19.20
2023-02-03T18:29:01.757Z,19.20
2023-02-03T18:31:28.829Z,19.20
2023-02-03T18:33:55.758Z,19.20
2023-02-03T18:36:22.472Z,19.20
2023-02-03T18:38:49.135Z,19.20
2023-02-03T18:41:19.902Z,19.20
2023-02-03T18:43:49.133Z,19.20
2023-02-03T18:46:22.002Z,19.20
2023-02-03T18:48:48.780Z,19.20
2023-02-03T18:51:18.794Z,19.20
2023-02-03T18:53:46.779Z,19.20
2023-02-03T18:56:20.411Z,19.20
2023-02-03T18:58:47.822Z,19.20
2023-02-03T19:01:26.304Z,19.20
2023-02-03T19:03:54.777Z,19.20
2023-02-03T19:06:22.563Z,19.20
2023-02-03T19:08:49.202Z,19.20
2023-02-03T19:11:17.086Z,19.20
2023-02-03T19:13:43.943Z,19.20
2023-02-03T19:16:14.096Z,19.20
2023-02-03T19:18:40.882Z,19.20
2023-02-03T19:21:07.715Z,19.20
2023-02-03T19:23:34.319Z,19.20
2023-02-03T19:26:01.966Z,19.20
2023-02-03T19:28:31.206Z,19.20
2023-02-03T19:31:12.817Z,19.20
2023-02-03T19:33:39.753Z,19.20
2023-02-03T19:36:08.264Z,19.20
2023-02-03T19:38:35.660Z,19.20
2023-02-03T19:41:02.531Z,19.20
2023-02-03T19:43:30.959Z,19.20
2023-02-03T19:45:57.756Z,19.20
2023-02-03T19:48:24.542Z,19.20
2023-02-03T19:50:51.200Z,19.20
2023-02-03T19:53:18.611Z,19.30
2023-02-03T19:55:46.007Z,19.30
2023-02-03T19:58:13.908Z,19.30
2023-02-03T20:00:41.740Z,19.30
2023-02-03T20:03:08.906Z,19.30
2023-02-03T20:05:36.328Z,19.30
2023-02-03T20:08:03.870Z,19.30
2023-02-03T20:10:32.550Z,19.30
2023-02-03T20:12:59.564Z,19.30
2023-02-03T20:15:26.795Z,19.30
2023-02-03T20:17:53.512Z,19.30
2023-02-03T20:20:20.964Z,19.30
2023-02-03T20:22:48.339Z,19.30
2023-02-03T20:25:15.420Z,19.20
2023-02-03T20:27:42.667Z,19.20
2023-02-03T20:30:09.984Z,19.20
2023-02-03T20:32:36.776Z,19.20
2023-02-03T20:35:05.011Z,19.20
2023-02-03T20:37:32.097Z,19.20
2023-02-03T20:39:58.812Z,19.20
2023-02-03T20:42:25.502Z,19.20
2023-02-03T20:44:52.182Z,19.20
2023-02-03T20:47:19.202Z,19.20
2023-02-03T20:49:47.701Z,19.20
2023-02-03T20:52:16.525Z,19.20
2023-02-03T20:54:43.716Z,19.20
2023-02-03T20:57:18.746Z,19.30
2023-02-03T20:59:46.425Z,19.30
2023-02-03T21:02:58.068Z,19.30
2023-02-03T21:05:27.472Z,19.30
2023-02-03T21:07:54.587Z,19.20
2023-02-03T21:10:24.599Z,19.20
2023-02-03T21:12:52.001Z,19.20
2023-02-03T21:15:20.715Z,19.20
2023-02-03T21:17:47.358Z,19.20
2023-02-03T21:20:26.497Z,19.20
2023-02-03T21:22:53.624Z,19.20
2023-02-03T21:25:38.491Z,19.20
2023-02-03T21:28:05.220Z,19.20
2023-02-03T21:30:34.856Z,19.20
2023-02-03T21:33:26.809Z,19.20
2023-02-03T21:35:53.409Z,19.20
2023-02-03T21:38:32.329Z,19.20
2023-02-03T21:41:01.187Z,19.20
2023-02-03T21:43:29.544Z,19.20
2023-02-03T21:45:56.439Z,19.20
2023-02-03T21:48:30.537Z,19.20
2023-02-03T21:51:01.894Z,19.20
2023-02-03T21:53:33.405Z,19.20
2023-02-03T21:56:19.925Z,19.20
2023-02-03T21:58:47.858Z,19.20
2023-02-03T22:01:18.001Z,19.20
2023-02-03T22:03:50.488Z,19.20
2023-02-03T22:06:24.413Z,19.20
2023-02-03T22:08:58.634Z,19.20
2023-02-03T22:11:28.392Z,19.20
2023-02-03T22:13:56.037Z,19.20
2023-02-03T22:16:23.054Z,19.20
2023-02-03T22:18:50.726Z,19.20
2023-02-03T22:21:18.288Z,19.20
2023-02-03T22:23:45.330Z,19.20
2023-02-03T22:26:13.554Z,19.20
2023-02-03T22:28:42.323Z,19.20
2023-02-03T22:31:11.483Z,19.20
2023-02-03T22:33:38.562Z,19.20
2023-02-03T22:36:06.676Z,19.20
2023-02-03T22:38:34.859Z,19.20
2023-02-03T22:41:02.458Z,19.20
2023-02-03T22:43:31.033Z,19.20
2023-02-03T22:45:58.603Z,19.20
2023-02-03T22:48:25.427Z,19.20
2023-02-03T22:50:52.160Z,19.20
2023-02-03T22:53:18.856Z,19.20
2023-02-03T22:55:45.593Z,19.20
2023-02-03T22:58:12.448Z,19.20
2023-02-03T23:00:39.111Z,19.20
2023-02-03T23:03:06.159Z,19.20
2023-02-03T23:05:32.885Z,19.20
2023-02-03T23:08:00.339Z,19.20
2023-02-03T23:10:31.810Z,19.20
2023-02-03T23:13:00.720Z,19.20
2023-02-03T23:15:28.048Z,19.20
2023-02-03T23:17:54.888Z,19.20
2023-02-03T23:20:21.749Z,19.20
2023-02-03T23:22:48.898Z,19.20
2023-02-03T23:25:15.883Z,19.20
2023-02-03T23:27:42.572Z,19.20
2023-02-03T23:30:10.198Z,19.10
2023-02-03T23:32:36.896Z,19.20
2023-02-03T23:35:22.567Z,19.10
2023-02-03T23:37:49.265Z,19.10
2023-02-03T23:40:16.176Z,19.10
2023-02-03T23:42:42.991Z,19.10
2023-02-03T23:45:12.122Z,19.10
2023-02-03T23:47:43.664Z,19.10
2023-02-03T23:50:11.715Z,19.10
2023-02-03T23:52:38.440Z,19.10
2023-02-03T23:55:07.050Z,19.10
2023-02-03T23:57:34.124Z,19.10
